^^
Saratoga-Weather Station Historical Data
Daily Summary for February 26, 2020 Units:  Metric    English   Both
Daily Weekly Monthly Yearly Custom
  High: Low: Average:
Temperature: 12.2 °C 7.7 °C 9.9 °C
Dew Point: 9.7 °C 6.1 °C 7.8 °C
Humidity: 96% 70% 87%
Wind Speed: 24.1km/h 0km/h 2.2km/h
Wind Gust: 25.7km/h - -
Wind- - SW
Pressure: 1006.4 hPa 1001.7 hPa -
Precipitation: 1.5 mm    
Historical Graphs
 
 
Tabular Data for February 26, 2020
Time Temperature Dew Point Pressure Wind Wind Speed Wind Gust Humidity Rainfall Rate (Hourly) solar
00:01 10 °C 9.4 °C 1002.7 hPa NE 1.4 km/h 1.6 km/h 96% 0.0 mm 0 W/m2
00:06 10.1 °C 9.5 °C 1002.7 hPa Calm   3.2 km/h 96% 0.0 mm 0 W/m2
00:11 10.1 °C 9.5 °C 1002.4 hPa NE 4.7 km/h 4.8 km/h 96% 0.0 mm 0 W/m2
00:16 10.2 °C 9.6 °C 1002.4 hPa ENE 1.4 km/h 1.6 km/h 96% 0.0 mm 0 W/m2
00:21 10.2 °C 9.6 °C 1002.4 hPa Calm   4.8 km/h 96% 0.0 mm 0 W/m2
00:26 10.2 °C 9.6 °C 1002.4 hPa East 3.2 km/h 3.2 km/h 96% 0.0 mm 0 W/m2
00:31 10.2 °C 9.6 °C 1002.4 hPa Calm   3.2 km/h 96% 0.0 mm 0 W/m2
00:36 10.2 °C 9.6 °C 1002.4 hPa ENE 1.4 km/h 3.2 km/h 96% 0.0 mm 0 W/m2
00:41 10.2 °C 9.6 °C 1002.0 hPa Calm   1.6 km/h 96% 0.0 mm 0 W/m2
00:46 10.2 °C 9.6 °C 1002.0 hPa ENE 1.4 km/h 3.2 km/h 96% 0.0 mm 0 W/m2
00:51 10.2 °C 9.6 °C 1002.0 hPa Calm   3.2 km/h 96% 0.0 mm 0 W/m2
00:56 10.2 °C 9.6 °C 1002.0 hPa Calm   1.6 km/h 96% 0.0 mm 0 W/m2
01:01 10.2 °C 9.6 °C 1002.0 hPa Calm     96% 0.0 mm 0 W/m2
01:06 10.2 °C 9.6 °C 1002.0 hPa East 1.4 km/h 4.8 km/h 96% 0.0 mm 0 W/m2
01:11 10.2 °C 9.6 °C 1002.0 hPa Calm     96% 0.0 mm 0 W/m2
01:16 10.2 °C 9.6 °C 1002.0 hPa East 1.4 km/h 1.6 km/h 96% 0.2 mm 0 W/m2
01:21 10.2 °C 9.6 °C 1002.0 hPa East 1.4 km/h 3.2 km/h 96% 0.2 mm 0 W/m2
01:26 10.2 °C 9.6 °C 1002.0 hPa NE 3.2 km/h 4.8 km/h 96% 0.2 mm 0 W/m2
01:31 10.2 °C 9.6 °C 1002.0 hPa Calm     96% 0.2 mm 0 W/m2
01:36 10.2 °C 9.6 °C 1002.0 hPa Calm   3.2 km/h 96% 0.2 mm 0 W/m2
01:41 10.2 °C 9.6 °C 1002.0 hPa East 3.2 km/h 3.2 km/h 96% 0.2 mm 0 W/m2
01:46 10.2 °C 9.6 °C 1002.0 hPa Calm   3.2 km/h 96% 0.5 mm 0 W/m2
01:51 10.3 °C 9.7 °C 1002.0 hPa NE 3.2 km/h 3.2 km/h 96% 0.8 mm 0 W/m2
01:56 10.2 °C 9.6 °C 1002.0 hPa Calm     96% 1.0 mm 0 W/m2
02:01 10.2 °C 9.6 °C 1002.4 hPa NE 3.2 km/h 3.2 km/h 96% 1.0 mm 0 W/m2
02:06 10.2 °C 9.6 °C 1002.7 hPa WNW 3.2 km/h 14.5 km/h 96% 1.3 mm 0 W/m2
02:11 10.2 °C 9.6 °C 1002.7 hPa South 1.4 km/h 6.4 km/h 96% 1.0 mm 0 W/m2
02:16 10.2 °C 9.6 °C 1002.7 hPa Calm   4.8 km/h 96% 1.0 mm 0 W/m2
02:21 10.1 °C 9.5 °C 1002.7 hPa NNW 1.4 km/h 4.8 km/h 96% 1.3 mm 0 W/m2
02:26 10.1 °C 9.3 °C 1002.4 hPa ENE 1.4 km/h 3.2 km/h 95% 1.3 mm 0 W/m2
02:31 10 °C 9.2 °C 1002.4 hPa SE 4.7 km/h 4.8 km/h 95% 1.3 mm 0 W/m2
02:36 9.9 °C 9.1 °C 1002.4 hPa Calm   4.8 km/h 95% 1.5 mm 0 W/m2
02:41 9.9 °C 9.1 °C 1002.4 hPa NW 1.4 km/h 3.2 km/h 95% 1.5 mm 0 W/m2
02:46 9.9 °C 9 °C 1002.4 hPa NNW 1.4 km/h 3.2 km/h 94% 1.3 mm 0 W/m2
02:51 9.9 °C 9 °C 1002.4 hPa Calm   3.2 km/h 94% 0.5 mm 0 W/m2
02:56 9.8 °C 8.9 °C 1002.4 hPa West 1.4 km/h 3.2 km/h 94% 0.5 mm 0 W/m2
03:02 9.9 °C 9 °C 1002.4 hPa Calm   3.2 km/h 94% 0.5 mm 0 W/m2
03:07 9.9 °C 9 °C 1002.4 hPa WNW 3.2 km/h 3.2 km/h 94% 0.5 mm 0 W/m2
03:12 9.9 °C 9 °C 1002.4 hPa NW 3.2 km/h 6.4 km/h 94% 0.5 mm 0 W/m2
03:17 10 °C 9.2 °C 1002.4 hPa Calm   4.8 km/h 95% 0.5 mm 0 W/m2
03:22 10 °C 9.2 °C 1002.4 hPa WNW 3.2 km/h 4.8 km/h 95% 0.2 mm 0 W/m2
03:27 10 °C 9.2 °C 1002.4 hPa NNW 3.2 km/h 3.2 km/h 95% 0.2 mm 0 W/m2
03:32 10.1 °C 9.3 °C 1002.4 hPa Calm   4.8 km/h 95% 0.0 mm 0 W/m2
03:37 10.1 °C 9.2 °C 1002.4 hPa NNW 3.2 km/h 4.8 km/h 94% 0.0 mm 0 W/m2
03:42 10.1 °C 9.2 °C 1002.0 hPa NW 1.4 km/h 6.4 km/h 94% 0.0 mm 0 W/m2
03:47 10.1 °C 9.2 °C 1001.7 hPa Calm     94% 0.0 mm 0 W/m2
03:52 10 °C 9.1 °C 1002.0 hPa Calm   6.4 km/h 94% 0.0 mm 0 W/m2
03:57 9.9 °C 9 °C 1001.7 hPa North 7.9 km/h 8 km/h 94% 0.0 mm 0 W/m2
04:02 9.9 °C 9 °C 1001.7 hPa Calm     94% 0.0 mm 0 W/m2
04:07 9.9 °C 9 °C 1002.0 hPa Calm   1.6 km/h 94% 0.0 mm 0 W/m2
04:12 9.9 °C 9 °C 1002.4 hPa NE 3.2 km/h 3.2 km/h 94% 0.0 mm 0 W/m2
04:17 9.8 °C 8.9 °C 1002.0 hPa Calm   3.2 km/h 94% 0.0 mm 0 W/m2
04:22 9.8 °C 8.9 °C 1002.4 hPa WNW 6.4 km/h 6.4 km/h 94% 0.0 mm 0 W/m2
04:27 9.8 °C 8.9 °C 1002.0 hPa Calm   3.2 km/h 94% 0.0 mm 0 W/m2
04:32 9.7 °C 8.8 °C 1002.4 hPa SW 4.7 km/h 12.9 km/h 94% 0.0 mm 0 W/m2
04:37 9.7 °C 8.8 °C 1002.0 hPa WNW 3.2 km/h 4.8 km/h 94% 0.0 mm 0 W/m2
04:42 9.7 °C 8.8 °C 1002.0 hPa NW 1.4 km/h 9.7 km/h 94% 0.0 mm 0 W/m2
04:47 9.6 °C 8.7 °C 1002.4 hPa Calm   4.8 km/h 94% 0.0 mm 0 W/m2
04:52 9.6 °C 8.7 °C 1002.0 hPa NE 1.4 km/h 4.8 km/h 94% 0.0 mm 0 W/m2
04:57 9.6 °C 8.7 °C 1002.0 hPa West 3.2 km/h 3.2 km/h 94% 0.0 mm 0 W/m2
05:02 9.6 °C 8.7 °C 1002.0 hPa NW 3.2 km/h 4.8 km/h 94% 0.0 mm 0 W/m2
05:07 9.6 °C 8.7 °C 1002.4 hPa West 1.4 km/h 3.2 km/h 94% 0.0 mm 0 W/m2
05:12 9.6 °C 8.5 °C 1002.7 hPa Calm   1.6 km/h 93% 0.0 mm 0 W/m2
05:17 9.6 °C 8.5 °C 1002.0 hPa Calm   3.2 km/h 93% 0.0 mm 0 W/m2
05:22 9.5 °C 8.4 °C 1002.0 hPa Calm   1.6 km/h 93% 0.0 mm 0 W/m2
05:27 9.4 °C 8.3 °C 1002.0 hPa Calm   3.2 km/h 93% 0.0 mm 0 W/m2
05:32 9.3 °C 8.2 °C 1002.0 hPa ENE 1.4 km/h 4.8 km/h 93% 0.0 mm 0 W/m2
05:37 9.2 °C 8.3 °C 1002.0 hPa Calm     94% 0.0 mm 0 W/m2
05:42 9.2 °C 8.3 °C 1002.4 hPa Calm   4.8 km/h 94% 0.0 mm 0 W/m2
05:47 9.1 °C 8.2 °C 1002.7 hPa Calm   1.6 km/h 94% 0.0 mm 0 W/m2
05:53 9.1 °C 8.2 °C 1003.0 hPa WNW 3.2 km/h 3.2 km/h 94% 0.0 mm 0 W/m2
05:58 9.2 °C 8.3 °C 1003.0 hPa NW 1.4 km/h 1.6 km/h 94% 0.0 mm 0 W/m2
06:03 9.2 °C 8.3 °C 1003.0 hPa WNW 1.4 km/h 8 km/h 94% 0.0 mm 0 W/m2
06:08 9.2 °C 8.3 °C 1003.4 hPa West 3.2 km/h 12.9 km/h 94% 0.0 mm 0 W/m2
06:13 9.2 °C 8.3 °C 1003.4 hPa Calm   4.8 km/h 94% 0.0 mm 0 W/m2
06:18 9.3 °C 8.4 °C 1003.0 hPa WNW 3.2 km/h 12.9 km/h 94% 0.0 mm 0 W/m2
06:23 9.3 °C 8.2 °C 1003.0 hPa Calm   3.2 km/h 93% 0.0 mm 0 W/m2
06:28 9.3 °C 8.2 °C 1003.0 hPa WNW 1.4 km/h 8 km/h 93% 0.0 mm 0 W/m2
06:33 9.3 °C 8.2 °C 1002.7 hPa Calm   3.2 km/h 93% 0.0 mm 0 W/m2
06:38 9.2 °C 8.1 °C 1003.0 hPa NW 1.4 km/h 3.2 km/h 93% 0.0 mm 0 W/m2
06:43 9.2 °C 8.1 °C 1003.0 hPa WNW 3.2 km/h 6.4 km/h 93% 0.0 mm 0 W/m2
06:48 9.2 °C 8.1 °C 1003.0 hPa NE 4.7 km/h 4.8 km/h 93% 0.0 mm 0 W/m2
06:53 9.1 °C 8 °C 1003.4 hPa NW 1.4 km/h 8 km/h 93% 0.0 mm 0 W/m2
06:58 9.1 °C 8.2 °C 1003.4 hPa North 1.4 km/h 4.8 km/h 94% 0.0 mm 0 W/m2
07:03 9.1 °C 8 °C 1003.0 hPa ENE 1.4 km/h 3.2 km/h 93% 0.0 mm 0 W/m2
07:08 9.1 °C 8 °C 1003.0 hPa Calm   3.2 km/h 93% 0.0 mm 0 W/m2
07:13 9.1 °C 8.2 °C 1002.7 hPa North 3.2 km/h 4.8 km/h 94% 0.0 mm 0 W/m2
07:18 9.1 °C 8 °C 1002.7 hPa NE 1.4 km/h 4.8 km/h 93% 0.0 mm 0 W/m2
07:23 9.1 °C 8 °C 1002.7 hPa NW 3.2 km/h 4.8 km/h 93% 0.0 mm 0 W/m2
07:28 9 °C 7.9 °C 1002.7 hPa ENE 3.2 km/h 3.2 km/h 93% 0.0 mm 0 W/m2
07:33 9 °C 7.9 °C 1003.0 hPa Calm   4.8 km/h 93% 0.0 mm 5 W/m2
07:38 8.9 °C 7.8 °C 1003.4 hPa NE 4.7 km/h 4.8 km/h 93% 0.0 mm 7 W/m2
07:43 9 °C 8.1 °C 1003.4 hPa East 4.7 km/h 4.8 km/h 94% 0.0 mm 9 W/m2
07:48 9.1 °C 8.2 °C 1003.4 hPa Calm   8 km/h 94% 0.0 mm 9 W/m2
07:53 9.1 °C 8.2 °C 1003.4 hPa Calm   4.8 km/h 94% 0.0 mm 9 W/m2
07:58 9.1 °C 8.2 °C 1003.0 hPa East 1.4 km/h 4.8 km/h 94% 0.0 mm 7 W/m2
08:03 9.1 °C 8.2 °C 1003.4 hPa NW 4.7 km/h 4.8 km/h 94% 0.0 mm 12 W/m2
08:08 9.1 °C 8 °C 1003.0 hPa WNW 1.4 km/h 4.8 km/h 93% 0.0 mm 19 W/m2
08:13 9.1 °C 8 °C 1003.0 hPa Calm   6.4 km/h 93% 0.0 mm 25 W/m2
08:18 9.1 °C 8 °C 1003.0 hPa East 4.7 km/h 4.8 km/h 93% 0.0 mm 35 W/m2
08:23 9.1 °C 8 °C 1003.4 hPa NNW 1.4 km/h 6.4 km/h 93% 0.0 mm 28 W/m2
08:28 9.2 °C 8.1 °C 1003.4 hPa Calm   3.2 km/h 93% 0.0 mm 40 W/m2
08:33 9.1 °C 8 °C 1003.7 hPa Calm   6.4 km/h 93% 0.0 mm 35 W/m2
08:38 9.2 °C 8.1 °C 1003.7 hPa NE 4.7 km/h 6.4 km/h 93% 0.0 mm 37 W/m2
08:43 9.2 °C 8.1 °C 1004.1 hPa Calm   4.8 km/h 93% 0.0 mm 30 W/m2
08:48 9.2 °C 8.1 °C 1004.1 hPa NE 1.4 km/h 6.4 km/h 93% 0.0 mm 47 W/m2
08:53 9.2 °C 8.1 °C 1004.1 hPa North 1.4 km/h 3.2 km/h 93% 0.0 mm 49 W/m2
08:58 9.3 °C 8.2 °C 1004.1 hPa NW 1.4 km/h 4.8 km/h 93% 0.0 mm 54 W/m2
09:03 9.3 °C 8.1 °C 1004.1 hPa North 1.4 km/h 3.2 km/h 92% 0.0 mm 70 W/m2
09:08 9.4 °C 8.2 °C 1004.1 hPa North 1.4 km/h 6.4 km/h 92% 0.0 mm 62 W/m2
09:13 9.4 °C 8.2 °C 1004.4 hPa ENE 4.7 km/h 8 km/h 92% 0.0 mm 67 W/m2
09:18 9.4 °C 8.2 °C 1004.4 hPa NW 3.2 km/h 6.4 km/h 92% 0.0 mm 77 W/m2
09:23 9.4 °C 8 °C 1004.4 hPa NNE 4.7 km/h 4.8 km/h 91% 0.0 mm 83 W/m2
09:28 9.5 °C 8.1 °C 1004.4 hPa WNW 4.7 km/h 6.4 km/h 91% 0.0 mm 97 W/m2
09:33 9.6 °C 8.2 °C 1004.4 hPa NW 3.2 km/h 3.2 km/h 91% 0.0 mm 113 W/m2
09:38 9.6 °C 8.2 °C 1004.4 hPa NNW 4.7 km/h 8 km/h 91% 0.0 mm 113 W/m2
09:43 9.6 °C 8.2 °C 1004.1 hPa North 1.4 km/h 4.8 km/h 91% 0.0 mm 120 W/m2
09:48 9.6 °C 8 °C 1004.4 hPa WNW 4.7 km/h 6.4 km/h 90% 0.0 mm 123 W/m2
09:53 9.7 °C 8.1 °C 1004.4 hPa NNW 4.7 km/h 8 km/h 90% 0.0 mm 105 W/m2
09:58 9.7 °C 8.1 °C 1004.4 hPa WNW 1.4 km/h 4.8 km/h 90% 0.0 mm 109 W/m2
10:03 9.8 °C 8.2 °C 1004.4 hPa Calm   4.8 km/h 90% 0.0 mm 125 W/m2
10:08 9.8 °C 8.2 °C 1004.4 hPa NW 7.9 km/h 14.5 km/h 90% 0.0 mm 121 W/m2
10:13 9.8 °C 8.1 °C 1004.1 hPa WSW 1.4 km/h 11.3 km/h 89% 0.0 mm 120 W/m2
10:19 9.8 °C 8.1 °C 1004.4 hPa WNW 3.2 km/h 3.2 km/h 89% 0.0 mm 86 W/m2
10:24 9.8 °C 7.9 °C 1004.4 hPa West 6.4 km/h 11.3 km/h 88% 0.0 mm 98 W/m2
10:29 9.9 °C 8.2 °C 1004.4 hPa West 3.2 km/h 3.2 km/h 89% 0.0 mm 74 W/m2
10:34 9.9 °C 8 °C 1004.4 hPa West 6.4 km/h 11.3 km/h 88% 0.0 mm 109 W/m2
10:39 9.9 °C 8 °C 1004.4 hPa NW 1.4 km/h 4.8 km/h 88% 0.0 mm 125 W/m2
10:44 9.9 °C 7.8 °C 1004.4 hPa WNW 11.1 km/h 14.5 km/h 87% 0.0 mm 113 W/m2
10:49 9.9 °C 7.8 °C 1004.4 hPa NNE 3.2 km/h 6.4 km/h 87% 0.0 mm 127 W/m2
10:54 9.9 °C 7.5 °C 1004.4 hPa West 4.7 km/h 19.3 km/h 85% 0.0 mm 139 W/m2
10:59 9.9 °C 7.5 °C 1004.1 hPa West 14.3 km/h 19.3 km/h 85% 0.0 mm 107 W/m2
11:04 9.9 °C 7.5 °C 1004.1 hPa SW 6.4 km/h 12.9 km/h 85% 0.0 mm 97 W/m2
11:09 9.9 °C 7.5 °C 1004.4 hPa Calm   1.6 km/h 85% 0.0 mm 83 W/m2
11:14 9.9 °C 7.7 °C 1004.4 hPa WSW 1.4 km/h 4.8 km/h 86% 0.0 mm 127 W/m2
11:19 9.9 °C 7.5 °C 1004.4 hPa ENE 1.4 km/h 6.4 km/h 85% 0.0 mm 181 W/m2
11:24 10.1 °C 7.7 °C 1004.1 hPa NNW 4.7 km/h 6.4 km/h 85% 0.0 mm 174 W/m2
11:29 10.3 °C 7.9 °C 1004.1 hPa NNW 3.2 km/h 8 km/h 85% 0.0 mm 190 W/m2
11:34 10.5 °C 7.9 °C 1004.1 hPa WNW 3.2 km/h 3.2 km/h 84% 0.0 mm 221 W/m2
11:39 10.7 °C 7.9 °C 1004.4 hPa SW 3.2 km/h 4.8 km/h 83% 0.0 mm 206 W/m2
11:44 10.8 °C 7.9 °C 1004.4 hPa SE 1.4 km/h 4.8 km/h 82% 0.0 mm 120 W/m2
11:49 10.9 °C 7.8 °C 1004.7 hPa WNW 4.7 km/h 9.7 km/h 81% 0.0 mm 62 W/m2
11:54 10.7 °C 7.2 °C 1004.7 hPa WNW 6.4 km/h 17.7 km/h 79% 0.0 mm 97 W/m2
11:59 10.5 °C 7 °C 1004.4 hPa SW 4.7 km/h 16.1 km/h 79% 0.0 mm 88 W/m2
12:04 10.4 °C 6.9 °C 1004.4 hPa West 6.4 km/h 17.7 km/h 79% 0.0 mm 114 W/m2
12:09 10.4 °C 6.9 °C 1004.4 hPa NW 1.4 km/h 17.7 km/h 79% 0.0 mm 121 W/m2
12:14 10.6 °C 7.1 °C 1004.4 hPa NW 1.4 km/h 6.4 km/h 79% 0.0 mm 120 W/m2
12:19 10.6 °C 6.7 °C 1004.4 hPa NW 4.7 km/h 17.7 km/h 77% 0.0 mm 139 W/m2
12:24 10.7 °C 6.8 °C 1004.4 hPa NNW 4.7 km/h 11.3 km/h 77% 0.0 mm 125 W/m2
12:29 10.8 °C 6.5 °C 1004.4 hPa NW 3.2 km/h 12.9 km/h 75% 0.0 mm 102 W/m2
12:34 11.1 °C 7 °C 1004.4 hPa West 1.4 km/h 14.5 km/h 76% 0.0 mm 128 W/m2
12:39 11.1 °C 6.8 °C 1004.4 hPa Calm   4.8 km/h 75% 0.0 mm 125 W/m2
12:44 11.1 °C 6.8 °C 1004.4 hPa WNW 3.2 km/h 14.5 km/h 75% 0.0 mm 118 W/m2
12:49 11.1 °C 6.8 °C 1004.4 hPa West 4.7 km/h 6.4 km/h 75% 0.0 mm 88 W/m2
12:54 10.9 °C 6.8 °C 1004.1 hPa WNW 4.7 km/h 8 km/h 76% 0.0 mm 109 W/m2
12:59 10.9 °C 6.6 °C 1004.1 hPa WNW 4.7 km/h 11.3 km/h 75% 0.0 mm 86 W/m2
13:04 10.8 °C 6.7 °C 1004.1 hPa Calm   4.8 km/h 76% 0.0 mm 81 W/m2
13:09 10.8 °C 6.9 °C 1004.1 hPa West 3.2 km/h 11.3 km/h 77% 0.0 mm 134 W/m2
13:14 10.8 °C 7.1 °C 1004.4 hPa West 3.2 km/h 3.2 km/h 78% 0.0 mm 137 W/m2
13:19 10.9 °C 7.2 °C 1004.4 hPa WSW 1.4 km/h 11.3 km/h 78% 0.0 mm 97 W/m2
13:24 11.2 °C 7.1 °C 1004.4 hPa WNW 7.9 km/h 8 km/h 76% 0.0 mm 97 W/m2
13:29 11.4 °C 7.1 °C 1004.4 hPa West 1.4 km/h 6.4 km/h 75% 0.0 mm 241 W/m2
13:34 11.6 °C 7.1 °C 1004.1 hPa West 3.2 km/h 8 km/h 74% 0.0 mm 144 W/m2
13:39 11.8 °C 7.5 °C 1004.1 hPa South 3.2 km/h 9.7 km/h 75% 0.0 mm 295 W/m2
13:44 12.1 °C 7.2 °C 1004.1 hPa Calm   9.7 km/h 72% 0.0 mm 146 W/m2
13:49 12.2 °C 7.3 °C 1004.1 hPa WNW 24.1 km/h 25.7 km/h 72% 0.0 mm 185 W/m2
13:54 12.1 °C 7 °C 1004.4 hPa NW 1.4 km/h 14.5 km/h 71% 0.0 mm 81 W/m2
13:59 11.9 °C 6.8 °C 1004.1 hPa Calm   25.7 km/h 71% 0.0 mm 104 W/m2
14:04 11.8 °C 6.7 °C 1004.1 hPa NW 4.7 km/h 14.5 km/h 71% 0.0 mm 130 W/m2
14:09 11.8 °C 6.7 °C 1004.1 hPa WNW 1.4 km/h 9.7 km/h 71% 0.0 mm 114 W/m2
14:14 11.8 °C 6.9 °C 1004.1 hPa WNW 1.4 km/h 11.3 km/h 72% 0.0 mm 116 W/m2
14:19 11.8 °C 7.1 °C 1004.1 hPa NW 7.9 km/h 8 km/h 73% 0.0 mm 98 W/m2
14:24 11.9 °C 7.4 °C 1004.1 hPa WSW 1.4 km/h 4.8 km/h 74% 0.0 mm 97 W/m2
14:29 11.9 °C 7.2 °C 1004.1 hPa Calm   8 km/h 73% 0.0 mm 132 W/m2
14:34 11.9 °C 7.2 °C 1004.1 hPa NW 6.4 km/h 11.3 km/h 73% 0.0 mm 121 W/m2
14:39 11.9 °C 7.2 °C 1004.1 hPa WNW 4.7 km/h 4.8 km/h 73% 0.0 mm 134 W/m2
14:44 11.9 °C 7.2 °C 1004.1 hPa WSW 3.2 km/h 6.4 km/h 73% 0.0 mm 130 W/m2
14:49 11.9 °C 7 °C 1004.4 hPa WNW 6.4 km/h 14.5 km/h 72% 0.0 mm 146 W/m2
14:54 12 °C 6.9 °C 1004.4 hPa WNW 3.2 km/h 16.1 km/h 71% 0.0 mm 167 W/m2
14:59 12.1 °C 7.2 °C 1004.4 hPa NW 6.4 km/h 6.4 km/h 72% 0.0 mm 86 W/m2
15:04 12 °C 7.1 °C 1004.4 hPa WNW 6.4 km/h 16.1 km/h 72% 0.0 mm 155 W/m2
15:09 12 °C 7.1 °C 1004.4 hPa WNW 3.2 km/h 11.3 km/h 72% 0.0 mm 146 W/m2
15:14 12.1 °C 7.2 °C 1004.4 hPa WSW 6.4 km/h 12.9 km/h 72% 0.0 mm 100 W/m2
15:19 12 °C 6.9 °C 1004.4 hPa NW 6.4 km/h 16.1 km/h 71% 0.0 mm 113 W/m2
15:24 12 °C 6.7 °C 1004.7 hPa NW 4.7 km/h 9.7 km/h 70% 0.0 mm 83 W/m2
15:29 11.9 °C 6.8 °C 1004.4 hPa NNW 6.4 km/h 6.4 km/h 71% 0.0 mm 77 W/m2
15:34 11.9 °C 7 °C 1004.4 hPa North 6.4 km/h 6.4 km/h 72% 0.0 mm 91 W/m2
15:39 11.9 °C 7 °C 1004.4 hPa WSW 3.2 km/h 11.3 km/h 72% 0.0 mm 95 W/m2
15:44 11.8 °C 6.9 °C 1004.4 hPa WNW 1.4 km/h 4.8 km/h 72% 0.0 mm 95 W/m2
15:49 11.8 °C 7.1 °C 1004.4 hPa WNW 1.4 km/h 11.3 km/h 73% 0.0 mm 74 W/m2
15:54 11.8 °C 7.1 °C 1004.4 hPa NW 1.4 km/h 3.2 km/h 73% 0.0 mm 76 W/m2
15:59 11.8 °C 7.1 °C 1004.7 hPa West 1.4 km/h 4.8 km/h 73% 0.0 mm 79 W/m2
16:04 11.8 °C 7.3 °C 1004.4 hPa East 1.4 km/h 6.4 km/h 74% 0.0 mm 74 W/m2
16:09 11.8 °C 7.1 °C 1004.4 hPa WSW 1.4 km/h 4.8 km/h 73% 0.0 mm 74 W/m2
16:14 11.8 °C 7.1 °C 1004.4 hPa West 4.7 km/h 14.5 km/h 73% 0.0 mm 72 W/m2
16:19 11.7 °C 6.8 °C 1004.4 hPa West 1.4 km/h 14.5 km/h 72% 0.0 mm 60 W/m2
16:24 11.7 °C 6.8 °C 1004.4 hPa Calm   4.8 km/h 72% 0.0 mm 33 W/m2
16:29 11.6 °C 6.7 °C 1004.4 hPa West 3.2 km/h 14.5 km/h 72% 0.0 mm 23 W/m2
16:34 11.5 °C 6.8 °C 1004.7 hPa NW 3.2 km/h 4.8 km/h 73% 0.0 mm 26 W/m2
16:39 11.4 °C 6.7 °C 1004.7 hPa WSW 4.7 km/h 14.5 km/h 73% 0.0 mm 40 W/m2
16:44 11.4 °C 7.1 °C 1004.7 hPa NE 1.4 km/h 3.2 km/h 75% 0.0 mm 33 W/m2
16:49 11.3 °C 7.2 °C 1004.7 hPa Calm   6.4 km/h 76% 0.0 mm 30 W/m2
16:54 11.2 °C 6.9 °C 1004.7 hPa SW 1.4 km/h 3.2 km/h 75% 0.0 mm 23 W/m2
16:59 11.1 °C 7.2 °C 1004.4 hPa Calm     77% 0.0 mm 12 W/m2
17:04 10.8 °C 7.1 °C 1004.4 hPa SW 1.4 km/h 1.6 km/h 78% 0.0 mm 11 W/m2
17:09 10.7 °C 7.4 °C 1004.4 hPa Calm     80% 0.0 mm 9 W/m2
17:14 10.6 °C 7.5 °C 1004.4 hPa Calm   1.6 km/h 81% 0.0 mm 5 W/m2
17:19 10.4 °C 7.5 °C 1004.4 hPa Calm   4.8 km/h 82% 0.0 mm 0 W/m2
17:24 10.3 °C 7.2 °C 1004.4 hPa Calm   3.2 km/h 81% 0.0 mm 0 W/m2
17:29 10.3 °C 7.5 °C 1004.7 hPa East 1.4 km/h 4.8 km/h 83% 0.0 mm 0 W/m2
17:34 10.2 °C 7.3 °C 1004.7 hPa Calm   3.2 km/h 82% 0.0 mm 0 W/m2
17:40 10.1 °C 7.3 °C 1004.7 hPa Calm     83% 0.0 mm 0 W/m2
17:45 10 °C 7.4 °C 1004.7 hPa SW 1.4 km/h 3.2 km/h 84% 0.0 mm 0 W/m2
17:50 9.9 °C 7.1 °C 1004.7 hPa Calm   1.6 km/h 83% 0.0 mm 0 W/m2
17:55 9.8 °C 7.2 °C 1004.7 hPa SW 1.4 km/h 1.6 km/h 84% 0.0 mm 0 W/m2
18:00 9.8 °C 7.1 °C 1004.7 hPa NE 1.4 km/h 3.2 km/h 83% 0.0 mm 0 W/m2
18:05 9.7 °C 7.1 °C 1004.7 hPa NE 3.2 km/h 3.2 km/h 84% 0.0 mm 0 W/m2
18:10 9.6 °C 7 °C 1004.7 hPa Calm   1.6 km/h 84% 0.0 mm 0 W/m2
18:15 9.3 °C 6.9 °C 1004.7 hPa Calm     85% 0.0 mm 0 W/m2
18:20 9.1 °C 6.9 °C 1004.7 hPa Calm   1.6 km/h 86% 0.0 mm 0 W/m2
18:25 8.9 °C 6.9 °C 1004.7 hPa Calm     87% 0.0 mm 0 W/m2
18:30 8.7 °C 6.7 °C 1004.7 hPa Calm     87% 0.0 mm 0 W/m2
18:35 8.5 °C 6.6 °C 1005.1 hPa Calm     88% 0.0 mm 0 W/m2
18:40 8.3 °C 6.4 °C 1005.1 hPa Calm     88% 0.0 mm 0 W/m2
18:45 8.2 °C 6.5 °C 1005.4 hPa Calm     89% 0.0 mm 0 W/m2
18:51 8.1 °C 6.4 °C 1005.4 hPa Calm     89% 0.0 mm 0 W/m2
18:56 8 °C 6.5 °C 1005.4 hPa SSE 3.2 km/h 9.7 km/h 90% 0.0 mm 0 W/m2
19:01 8.1 °C 6.6 °C 1005.4 hPa Calm   3.2 km/h 90% 0.0 mm 0 W/m2
19:06 8.1 °C 6.7 °C 1005.4 hPa Calm   9.7 km/h 91% 0.0 mm 0 W/m2
19:11 8.2 °C 6.8 °C 1005.4 hPa WSW 3.2 km/h 3.2 km/h 91% 0.0 mm 0 W/m2
19:16 8.3 °C 6.8 °C 1005.8 hPa Calm     90% 0.0 mm 0 W/m2
19:21 8.5 °C 7 °C 1005.8 hPa NW 3.2 km/h 4.8 km/h 90% 0.0 mm 0 W/m2
19:26 9.1 °C 7.2 °C 1005.8 hPa ENE 3.2 km/h 4.8 km/h 88% 0.0 mm 0 W/m2
19:31 9.5 °C 7.1 °C 1005.8 hPa ENE 7.9 km/h 12.9 km/h 85% 0.0 mm 0 W/m2
19:36 9.7 °C 7.1 °C 1005.8 hPa West 1.4 km/h 14.5 km/h 84% 0.0 mm 0 W/m2
19:41 9.7 °C 7 °C 1006.1 hPa NW 1.4 km/h 4.8 km/h 83% 0.0 mm 0 W/m2
19:46 9.7 °C 7 °C 1006.1 hPa NNW 6.4 km/h 14.5 km/h 83% 0.0 mm 0 W/m2
19:51 9.6 °C 7 °C 1006.1 hPa North 3.2 km/h 3.2 km/h 84% 0.0 mm 0 W/m2
19:56 9.5 °C 6.9 °C 1006.1 hPa NNW 1.4 km/h 4.8 km/h 84% 0.0 mm 0 W/m2
20:01 9.4 °C 7 °C 1006.1 hPa Calm   4.8 km/h 85% 0.0 mm 0 W/m2
20:06 9.3 °C 6.9 °C 1006.1 hPa Calm   4.8 km/h 85% 0.0 mm 0 W/m2
20:11 9.2 °C 7 °C 1006.1 hPa WNW 4.7 km/h 4.8 km/h 86% 0.0 mm 0 W/m2
20:16 9.1 °C 6.9 °C 1006.1 hPa Calm   3.2 km/h 86% 0.0 mm 0 W/m2
20:21 9.1 °C 6.9 °C 1006.1 hPa WNW 4.7 km/h 6.4 km/h 86% 0.0 mm 0 W/m2
20:26 9 °C 6.8 °C 1005.8 hPa Calm   3.2 km/h 86% 0.0 mm 0 W/m2
20:31 8.9 °C 6.7 °C 1005.8 hPa SE 1.4 km/h 4.8 km/h 86% 0.0 mm 0 W/m2
20:36 8.8 °C 6.6 °C 1005.8 hPa Calm   3.2 km/h 86% 0.0 mm 0 W/m2
20:41 8.8 °C 6.6 °C 1005.8 hPa Calm   4.8 km/h 86% 0.0 mm 0 W/m2
20:46 8.6 °C 6.6 °C 1005.8 hPa Calm   1.6 km/h 87% 0.0 mm 0 W/m2
20:51 8.6 °C 6.6 °C 1005.8 hPa Calm     87% 0.0 mm 0 W/m2
20:56 8.4 °C 6.4 °C 1006.1 hPa North 1.4 km/h 1.6 km/h 87% 0.0 mm 0 W/m2
21:01 8.3 °C 6.4 °C 1006.1 hPa Calm   1.6 km/h 88% 0.0 mm 0 W/m2
21:06 8.3 °C 6.4 °C 1006.1 hPa NNE 1.4 km/h 3.2 km/h 88% 0.0 mm 0 W/m2
21:11 8.2 °C 6.3 °C 1006.1 hPa NE 1.4 km/h 6.4 km/h 88% 0.0 mm 0 W/m2
21:16 8.2 °C 6.3 °C 1006.1 hPa Calm   1.6 km/h 88% 0.0 mm 0 W/m2
21:21 8.1 °C 6.2 °C 1006.1 hPa Calm   3.2 km/h 88% 0.0 mm 0 W/m2
21:26 8.1 °C 6.4 °C 1006.1 hPa Calm   1.6 km/h 89% 0.0 mm 0 W/m2
21:31 7.9 °C 6.2 °C 1006.1 hPa Calm   1.6 km/h 89% 0.0 mm 0 W/m2
21:37 7.8 °C 6.1 °C 1006.1 hPa Calm   3.2 km/h 89% 0.0 mm 0 W/m2
21:42 7.7 °C 6.2 °C 1006.1 hPa Calm   3.2 km/h 90% 0.0 mm 0 W/m2
21:47 7.7 °C 6.3 °C 1006.1 hPa Calm   3.2 km/h 91% 0.0 mm 0 W/m2
21:52 7.7 °C 6.3 °C 1006.4 hPa Calm   3.2 km/h 91% 0.0 mm 0 W/m2
21:57 7.7 °C 6.3 °C 1006.1 hPa ENE 3.2 km/h 8 km/h 91% 0.0 mm 0 W/m2
22:02 7.8 °C 6.4 °C 1006.4 hPa Calm   3.2 km/h 91% 0.0 mm 0 W/m2
22:07 7.8 °C 6.3 °C 1006.1 hPa ESE 3.2 km/h 9.7 km/h 90% 0.0 mm 0 W/m2
22:12 7.8 °C 6.3 °C 1006.4 hPa Calm   3.2 km/h 90% 0.0 mm 0 W/m2
22:17 7.9 °C 6.4 °C 1006.1 hPa NNE 1.4 km/h 1.6 km/h 90% 0.0 mm 0 W/m2
22:22 7.9 °C 6.4 °C 1006.4 hPa North 3.2 km/h 4.8 km/h 90% 0.0 mm 0 W/m2
22:27 8.1 °C 6.4 °C 1006.4 hPa Calm   1.6 km/h 89% 0.0 mm 0 W/m2
22:32 8.1 °C 6.4 °C 1006.4 hPa Calm   3.2 km/h 89% 0.0 mm 0 W/m2
22:37 8.1 °C 6.4 °C 1006.4 hPa NNW 1.4 km/h 3.2 km/h 89% 0.0 mm 0 W/m2
22:42 8.2 °C 6.5 °C 1006.4 hPa NW 1.4 km/h 1.6 km/h 89% 0.0 mm 0 W/m2
Juneau County Weather
Compliments of Weather Underground - 4 mb